createdAt,value
2019-05-21T00:01:39.946Z,95658.23
2019-05-21T00:04:09.031Z,95669.61
2019-05-21T00:06:38.035Z,95662.67
2019-05-21T00:12:02.376Z,95653.18
2019-05-21T00:17:07.231Z,95670.30
2019-05-21T00:19:36.026Z,95662.56
2019-05-21T00:22:05.197Z,95662.10
2019-05-21T00:24:34.690Z,95665.20
2019-05-21T00:27:03.630Z,95655.02
2019-05-21T00:30:11.575Z,95654.47
2019-05-21T00:33:19.438Z,95662.98
2019-05-21T00:36:27.784Z,95664.22
2019-05-21T00:39:35.527Z,95665.73
2019-05-21T00:42:22.424Z,95667.18
2019-05-21T00:48:00.564Z,95657.28
2019-05-21T00:53:24.743Z,95667.13
2019-05-21T00:55:53.800Z,95662.62
2019-05-21T00:58:22.801Z,95658.52
2019-05-21T01:00:51.620Z,95645.91
2019-05-21T01:03:20.838Z,95650.83
2019-05-21T01:05:50.334Z,95650.32
2019-05-21T01:08:18.971Z,95652.84
2019-05-21T01:10:48.107Z,95655.94
2019-05-21T01:13:17.138Z,95661.88
2019-05-21T01:15:46.187Z,95646.63
2019-05-21T01:18:15.495Z,95651.25
2019-05-21T01:20:44.775Z,95663.49
2019-05-21T01:23:14.050Z,95653.77
2019-05-21T01:25:42.608Z,95659.94
2019-05-21T01:28:11.646Z,95651.20
2019-05-21T01:30:40.851Z,95655.66
2019-05-21T01:33:09.530Z,95657.92
2019-05-21T01:35:57.527Z,95660.81
2019-05-21T01:38:26.261Z,95653.77
2019-05-21T01:40:55.482Z,95662.84
2019-05-21T01:43:24.735Z,95657.23
2019-05-21T01:45:53.653Z,95669.25
2019-05-21T01:48:22.782Z,95659.22
2019-05-21T01:51:10.804Z,95659.98
2019-05-21T01:53:39.794Z,95670.25
2019-05-21T01:56:08.447Z,95661.56
2019-05-21T01:58:37.795Z,95666.53
2019-05-21T02:01:07.324Z,95662.16
2019-05-21T02:03:36.417Z,95665.43
2019-05-21T02:06:05.753Z,95660.22
2019-05-21T02:08:34.901Z,95658.41
2019-05-21T02:11:03.642Z,95662.80
2019-05-21T02:13:32.660Z,95665.84
2019-05-21T02:16:01.422Z,95664.09
2019-05-21T02:18:30.201Z,95676.51
2019-05-21T02:20:59.267Z,95669.59
2019-05-21T02:23:28.442Z,95668.77
2019-05-21T02:25:57.087Z,95673.70
2019-05-21T02:28:26.366Z,95676.79
2019-05-21T02:30:56.680Z,95682.72
2019-05-21T02:33:25.948Z,95683.70
2019-05-21T02:35:55.296Z,95677.10
2019-05-21T02:38:25.361Z,95681.43
2019-05-21T02:40:54.725Z,95682.80
2019-05-21T02:43:42.902Z,95685.00
2019-05-21T02:46:31.083Z,95684.00
2019-05-21T02:51:48.263Z,95685.33
2019-05-21T02:54:17.555Z,95685.23
2019-05-21T02:56:46.968Z,95688.37
2019-05-21T02:59:16.237Z,95682.64
2019-05-21T03:04:21.348Z,95685.11
2019-05-21T03:06:50.361Z,95678.81
2019-05-21T03:09:19.558Z,95698.95
2019-05-21T03:11:48.952Z,95694.70
2019-05-21T03:14:18.152Z,95695.09
2019-05-21T03:16:47.307Z,95700.13
2019-05-21T03:19:16.859Z,95698.53
2019-05-21T03:21:47.112Z,95699.23
2019-05-21T03:24:16.120Z,95701.73
2019-05-21T03:29:24.886Z,95703.06
2019-05-21T03:31:54.598Z,95702.95
2019-05-21T03:37:13.031Z,95708.26
2019-05-21T03:39:41.678Z,95714.80
2019-05-21T03:42:10.999Z,95715.47
2019-05-21T03:45:01.247Z,95714.07
2019-05-21T03:47:31.021Z,95725.81
2019-05-21T03:49:59.721Z,95729.79
2019-05-21T03:52:28.850Z,95728.31
2019-05-21T03:54:57.497Z,95725.27
2019-05-21T03:58:05.949Z,95737.71
2019-05-21T04:00:35.098Z,95736.55
2019-05-21T04:03:04.289Z,95737.37
2019-05-21T04:05:32.996Z,95742.67
2019-05-21T04:08:02.207Z,95734.40
2019-05-21T04:13:08.450Z,95741.66
2019-05-21T04:16:18.348Z,95738.27
2019-05-21T04:21:36.447Z,95743.05
2019-05-21T04:24:08.726Z,95748.67
2019-05-21T04:26:36.203Z,95733.80
2019-05-21T04:29:04.841Z,95749.61
2019-05-21T04:31:34.006Z,95745.48
2019-05-21T04:34:03.439Z,95745.98
2019-05-21T04:36:32.321Z,95751.83
2019-05-21T04:39:00.961Z,95752.23
2019-05-21T04:41:30.005Z,95744.89
2019-05-21T04:43:59.240Z,95746.41
2019-05-21T04:47:08.062Z,95747.15
2019-05-21T04:49:36.632Z,95746.91
2019-05-21T04:52:05.376Z,95767.59
2019-05-21T04:54:34.116Z,95749.33
2019-05-21T04:57:02.746Z,95743.33
2019-05-21T04:59:31.370Z,95745.70
2019-05-21T05:01:59.974Z,95749.25
2019-05-21T05:04:28.618Z,95742.38
2019-05-21T05:06:57.299Z,95754.91
2019-05-21T05:12:15.153Z,95764.20
2019-05-21T05:14:43.729Z,95763.48
2019-05-21T05:17:12.476Z,95758.58
2019-05-21T05:19:41.222Z,95753.86
2019-05-21T05:22:09.828Z,95757.05
2019-05-21T05:24:38.460Z,95759.12
2019-05-21T05:27:07.171Z,95758.58
2019-05-21T05:29:35.823Z,95763.69
2019-05-21T05:32:04.466Z,95759.19
2019-05-21T05:34:33.213Z,95754.08
2019-05-21T05:37:01.833Z,95750.18
2019-05-21T05:39:30.553Z,95754.52
2019-05-21T05:41:59.317Z,95765.66
2019-05-21T05:44:27.961Z,95761.35
2019-05-21T05:46:56.650Z,95763.15
2019-05-21T05:49:44.467Z,95755.95
2019-05-21T05:52:13.182Z,95749.95
2019-05-21T05:54:41.776Z,95746.48
2019-05-21T05:57:10.425Z,95750.18
2019-05-21T05:59:39.125Z,95753.86
2019-05-21T06:02:07.886Z,95753.42
2019-05-21T06:04:36.578Z,95753.42
2019-05-21T06:07:05.229Z,95756.04
2019-05-21T06:09:33.904Z,95745.05
2019-05-21T06:12:02.600Z,95749.81
2019-05-21T06:14:31.265Z,95744.28
2019-05-21T06:16:59.834Z,95732.03
2019-05-21T06:19:28.514Z,95742.56
2019-05-21T06:21:57.164Z,95734.50
2019-05-21T06:24:25.863Z,95739.79
2019-05-21T06:26:54.503Z,95747.91
2019-05-21T06:29:23.176Z,95754.76
2019-05-21T06:31:51.851Z,95757.13
2019-05-21T06:34:20.539Z,95738.64
2019-05-21T06:36:49.181Z,95727.50
2019-05-21T06:39:17.835Z,95738.27
2019-05-21T06:41:46.526Z,95744.47
2019-05-21T06:44:15.194Z,95743.89
2019-05-21T06:46:43.876Z,95737.80
2019-05-21T06:49:12.480Z,95749.27
2019-05-21T06:51:41.246Z,95751.50
2019-05-21T06:54:09.987Z,95750.56
2019-05-21T06:56:38.627Z,95758.32
2019-05-21T06:59:07.318Z,95756.95
2019-05-21T07:01:35.965Z,95753.61
2019-05-21T07:04:04.709Z,95772.23
2019-05-21T07:06:33.369Z,95769.16
2019-05-21T07:09:02.063Z,95767.63
2019-05-21T07:11:30.728Z,95781.05
2019-05-21T07:13:59.361Z,95768.11
2019-05-21T07:16:28.007Z,95777.45
2019-05-21T07:18:56.706Z,95774.88
2019-05-21T07:21:25.489Z,95779.72
2019-05-21T07:24:13.412Z,95773.73
2019-05-21T07:26:42.423Z,95777.35
2019-05-21T07:29:11.108Z,95772.00
2019-05-21T07:31:39.873Z,95774.98
2019-05-21T07:34:08.454Z,95780.09
2019-05-21T07:36:37.144Z,95782.27
2019-05-21T07:39:45.606Z,95783.17
2019-05-21T07:42:14.099Z,95780.56
2019-05-21T07:44:42.701Z,95789.78
2019-05-21T07:47:11.393Z,95793.67
2019-05-21T07:49:40.047Z,95777.83
2019-05-21T07:52:08.726Z,95788.56
2019-05-21T07:54:37.290Z,95790.42
2019-05-21T07:57:05.907Z,95783.78
2019-05-21T07:59:34.555Z,95787.95
2019-05-21T08:02:03.235Z,95789.95
2019-05-21T08:04:31.834Z,95791.34
2019-05-21T08:07:00.496Z,95794.15
2019-05-21T08:09:29.119Z,95801.97
2019-05-21T08:11:57.740Z,95801.70
2019-05-21T08:14:26.381Z,95805.59
2019-05-21T08:16:55.061Z,95805.15
2019-05-21T08:19:23.753Z,95807.52
2019-05-21T08:21:52.406Z,95807.38
2019-05-21T08:24:21.087Z,95810.77
2019-05-21T08:26:49.777Z,95809.83
2019-05-21T08:29:18.462Z,95819.59
2019-05-21T08:31:47.175Z,95806.33
2019-05-21T08:34:15.756Z,95813.34
2019-05-21T08:36:44.363Z,95810.77
2019-05-21T08:39:27.664Z,95810.06
2019-05-21T08:41:43.438Z,95818.53
2019-05-21T08:44:12.078Z,95812.95
2019-05-21T08:46:40.779Z,95814.00
2019-05-21T08:49:09.362Z,95818.09
2019-05-21T08:51:57.230Z,95818.53
2019-05-21T08:54:45.022Z,95824.23
2019-05-21T08:57:13.712Z,95817.59
2019-05-21T08:59:42.361Z,95819.82
2019-05-21T09:02:11.050Z,95825.20
2019-05-21T09:04:46.166Z,95822.16
2019-05-21T09:10:44.374Z,95832.80
2019-05-21T09:13:13.015Z,95836.12
2019-05-21T09:15:41.706Z,95834.39
2019-05-21T09:18:10.326Z,95837.23
2019-05-21T09:20:39.127Z,95841.97
2019-05-21T09:23:07.767Z,95842.35
2019-05-21T09:25:36.417Z,95845.60
2019-05-21T09:28:05.207Z,95843.12
2019-05-21T09:30:33.828Z,95846.75
2019-05-21T09:33:02.462Z,95852.38
2019-05-21T09:35:31.166Z,95855.34
2019-05-21T09:37:59.823Z,95856.81
2019-05-21T09:43:29.637Z,95858.76
2019-05-21T09:45:58.313Z,95867.02
2019-05-21T09:48:26.983Z,95869.66
2019-05-21T09:50:55.659Z,95869.05
2019-05-21T09:53:24.304Z,95872.61
2019-05-21T09:55:53.003Z,95876.39
2019-05-21T10:06:22.405Z,95887.66
2019-05-21T10:08:51.055Z,95886.03
2019-05-21T10:11:19.748Z,95885.02
2019-05-21T10:13:48.369Z,95885.63
2019-05-21T10:16:16.917Z,95890.47
2019-05-21T10:18:45.555Z,95893.56
2019-05-21T10:21:14.206Z,95898.95
2019-05-21T10:23:42.864Z,95901.97
2019-05-21T10:26:11.546Z,95889.64
2019-05-21T10:28:40.181Z,95896.70
2019-05-21T10:31:08.862Z,95907.17
2019-05-21T10:33:37.501Z,95906.83
2019-05-21T10:36:45.945Z,95906.13
2019-05-21T10:41:49.972Z,95907.41
2019-05-21T10:44:18.644Z,95914.33
2019-05-21T10:46:47.320Z,95919.19
2019-05-21T10:49:15.964Z,95930.80
2019-05-21T10:51:44.636Z,95929.59
2019-05-21T10:54:13.277Z,95925.97
2019-05-21T10:56:47.739Z,95929.12
2019-05-21T10:59:12.334Z,95932.38
2019-05-21T11:02:00.155Z,95943.35
2019-05-21T11:09:48.412Z,95945.73
2019-05-21T11:12:16.974Z,95949.66
2019-05-21T11:14:45.751Z,95951.88
2019-05-21T11:17:14.428Z,95952.24
2019-05-21T11:19:43.015Z,95960.05
2019-05-21T11:22:11.607Z,95966.69
2019-05-21T11:24:40.307Z,95969.55
2019-05-21T11:27:08.948Z,95971.31
2019-05-21T11:29:37.714Z,95975.85
2019-05-21T11:32:06.378Z,95978.66
2019-05-21T11:34:35.072Z,95979.48
2019-05-21T11:37:03.791Z,95988.20
2019-05-21T11:39:32.512Z,95986.91
2019-05-21T11:42:01.155Z,95987.66
2019-05-21T11:44:29.846Z,95992.77
2019-05-21T11:46:58.569Z,95997.42
2019-05-21T11:49:27.269Z,96005.53
2019-05-21T11:51:55.951Z,95993.08
2019-05-21T11:54:24.584Z,96002.58
2019-05-21T11:56:53.184Z,95998.67
2019-05-21T11:59:21.884Z,96008.20
2019-05-21T12:01:50.558Z,96004.92
2019-05-21T12:04:19.258Z,96011.12
2019-05-21T12:06:47.900Z,96014.99
2019-05-21T12:09:16.517Z,96017.67
2019-05-21T12:11:45.199Z,96017.91
2019-05-21T12:14:13.824Z,96025.20
2019-05-21T12:16:42.518Z,96029.28
2019-05-21T12:19:11.219Z,96030.30
2019-05-21T12:21:39.869Z,96020.25
2019-05-21T12:24:08.561Z,96028.77
2019-05-21T12:26:37.217Z,96036.64
2019-05-21T12:29:05.876Z,96034.00
2019-05-21T12:31:34.535Z,96037.39
2019-05-21T12:34:03.153Z,96037.93
2019-05-21T12:36:31.794Z,96054.39
2019-05-21T12:39:13.573Z,96050.52
2019-05-21T12:41:30.845Z,96054.96
2019-05-21T12:43:59.543Z,96058.35
2019-05-21T12:46:28.200Z,96059.17
2019-05-21T12:48:56.848Z,96069.38
2019-05-21T12:51:25.549Z,96072.60
2019-05-21T12:53:54.190Z,96063.92
2019-05-21T12:56:22.873Z,96070.37
2019-05-21T12:58:51.451Z,96076.55
2019-05-21T13:01:20.130Z,96079.45
2019-05-21T13:03:48.691Z,96086.16
2019-05-21T13:06:17.369Z,96089.85
2019-05-21T13:08:46.084Z,96090.94
2019-05-21T13:11:14.708Z,96094.36
2019-05-21T13:13:43.393Z,96092.08
2019-05-21T13:16:12.043Z,96104.52
2019-05-21T13:18:40.809Z,96097.02
2019-05-21T13:21:09.456Z,96103.22
2019-05-21T13:23:38.105Z,96112.79
2019-05-21T13:26:08.735Z,96119.51
2019-05-21T13:28:37.256Z,96118.16
2019-05-21T13:31:05.948Z,96116.66
2019-05-21T13:33:34.623Z,96125.72
2019-05-21T13:36:03.299Z,96131.59
2019-05-21T13:38:31.973Z,96130.43
2019-05-21T13:43:56.811Z,96134.86
2019-05-21T13:46:25.465Z,96142.44
2019-05-21T13:48:54.161Z,96148.50
2019-05-21T13:51:22.846Z,96148.06
2019-05-21T13:53:51.669Z,96147.04
2019-05-21T13:56:20.363Z,96148.09
2019-05-21T13:58:48.985Z,96145.48
2019-05-21T14:01:41.186Z,96156.06
2019-05-21T14:04:47.205Z,96157.23
2019-05-21T14:07:15.848Z,96156.34
2019-05-21T14:09:44.483Z,96161.39
2019-05-21T14:14:48.659Z,96163.71
2019-05-21T14:17:17.344Z,96156.78
2019-05-21T14:19:46.021Z,96159.37
2019-05-21T14:22:14.642Z,96174.69
2019-05-21T14:24:43.295Z,96171.27
2019-05-21T14:27:11.982Z,96178.11
2019-05-21T14:29:40.717Z,96190.89
2019-05-21T14:32:09.276Z,96193.10
2019-05-21T14:34:37.865Z,96195.11
2019-05-21T14:37:06.538Z,96195.92
2019-05-21T14:39:35.233Z,96200.99
2019-05-21T14:42:03.876Z,96208.38
2019-05-21T14:44:32.559Z,96204.95
2019-05-21T14:47:01.215Z,96215.36
2019-05-21T14:49:29.902Z,96213.98
2019-05-21T14:51:58.471Z,96215.51
2019-05-21T14:54:27.343Z,96215.08
2019-05-21T14:56:55.809Z,96218.66
2019-05-21T14:59:24.487Z,96224.91
2019-05-21T15:01:53.136Z,96228.56
2019-05-21T15:04:22.112Z,96233.75
2019-05-21T15:06:52.176Z,96230.28
2019-05-21T15:09:21.035Z,96229.64
2019-05-21T15:11:49.723Z,96234.18
2019-05-21T15:14:18.394Z,96238.85
2019-05-21T15:16:47.068Z,96233.60
2019-05-21T15:19:15.729Z,96242.55
2019-05-21T15:24:33.796Z,96233.64
2019-05-21T15:27:02.489Z,96236.89
2019-05-21T15:29:31.071Z,96240.86
2019-05-21T15:31:59.746Z,96242.96
2019-05-21T15:34:28.407Z,96240.38
2019-05-21T15:36:57.084Z,96244.98
2019-05-21T15:39:25.641Z,96248.94
2019-05-21T15:41:54.285Z,96246.75
2019-05-21T15:44:22.881Z,96250.59
2019-05-21T15:46:52.126Z,96247.55
2019-05-21T15:49:35.198Z,96258.53
2019-05-21T15:51:52.279Z,96257.64
2019-05-21T15:54:20.881Z,96255.84
2019-05-21T15:56:49.544Z,96267.81
2019-05-21T15:59:18.218Z,96265.48
2019-05-21T16:01:46.903Z,96264.30
2019-05-21T16:04:16.840Z,96276.91
2019-05-21T16:06:45.959Z,96273.48
2019-05-21T16:09:14.635Z,96274.96
2019-05-21T16:11:43.313Z,96281.77
2019-05-21T16:14:11.999Z,96282.05
2019-05-21T16:16:40.627Z,96286.78
2019-05-21T16:19:09.264Z,96280.61
2019-05-21T16:21:57.216Z,96280.55
2019-05-21T16:24:25.785Z,96286.30
2019-05-21T16:26:54.543Z,96282.43
2019-05-21T16:29:23.298Z,96292.16
2019-05-21T16:32:31.840Z,96290.59
2019-05-21T16:35:00.861Z,96290.59
2019-05-21T16:37:29.504Z,96295.85
2019-05-21T16:40:01.265Z,96308.16
2019-05-21T16:42:29.225Z,96303.23
2019-05-21T16:44:58.091Z,96309.67
2019-05-21T16:47:43.543Z,96308.11
2019-05-21T16:49:57.305Z,96308.41
2019-05-21T16:52:25.955Z,96317.51
2019-05-21T16:54:54.620Z,96317.51
2019-05-21T16:59:59.146Z,96311.48
2019-05-21T17:02:27.800Z,96318.22
2019-05-21T17:05:15.739Z,96330.57
2019-05-21T17:08:03.608Z,96326.44
2019-05-21T17:10:32.222Z,96329.30
2019-05-21T17:13:01.007Z,96329.16
2019-05-21T17:15:29.769Z,96328.06
2019-05-21T17:17:58.424Z,96325.27
2019-05-21T17:20:27.112Z,96339.41
2019-05-21T17:22:55.713Z,96338.89
2019-05-21T17:25:24.379Z,96333.39
2019-05-21T17:27:53.082Z,96336.61
2019-05-21T17:30:40.991Z,96339.98
2019-05-21T17:33:09.695Z,96339.59
2019-05-21T17:35:38.363Z,96347.61
2019-05-21T17:40:46.248Z,96345.64
2019-05-21T17:43:14.931Z,96345.39
2019-05-21T17:45:43.629Z,96351.33
2019-05-21T17:51:09.116Z,96351.44
2019-05-21T17:53:37.558Z,96364.78
2019-05-21T17:56:06.284Z,96361.73
2019-05-21T17:58:34.882Z,96360.15
2019-05-21T18:01:22.758Z,96371.41
2019-05-21T18:10:05.879Z,96378.75
2019-05-21T18:12:34.534Z,96385.72
2019-05-21T18:17:39.586Z,96389.06
2019-05-21T18:20:48.058Z,96388.01
2019-05-21T18:23:16.751Z,96391.95
2019-05-21T18:25:45.369Z,96400.39
2019-05-21T18:33:47.846Z,96413.04
2019-05-21T18:36:16.516Z,96419.17
2019-05-21T18:39:24.950Z,96420.25
2019-05-21T18:41:53.731Z,96425.67
2019-05-21T18:44:22.393Z,96426.03
2019-05-21T18:46:51.045Z,96430.38
2019-05-21T18:49:19.659Z,96437.33
2019-05-21T18:51:48.242Z,96435.30
2019-05-21T18:54:16.931Z,96438.12
2019-05-21T18:56:45.565Z,96445.34
2019-05-21T18:59:14.190Z,96442.73
2019-05-21T19:01:42.843Z,96449.16
2019-05-21T19:04:11.488Z,96449.66
2019-05-21T19:06:40.177Z,96453.81
2019-05-21T19:12:42.959Z,96456.13
2019-05-21T19:15:51.461Z,96463.58
2019-05-21T19:18:20.209Z,96462.78
2019-05-21T19:20:50.122Z,96465.41
2019-05-21T19:23:19.275Z,96466.98
2019-05-21T19:25:47.890Z,96474.11
2019-05-21T19:28:16.479Z,96476.20
2019-05-21T19:30:45.144Z,96477.01
2019-05-21T19:33:13.876Z,96488.09
2019-05-21T19:35:42.715Z,96485.77
2019-05-21T19:38:11.410Z,96493.78
2019-05-21T19:40:40.134Z,96501.96
2019-05-21T19:43:08.789Z,96503.25
2019-05-21T19:45:37.494Z,96504.79
2019-05-21T19:48:06.128Z,96504.33
2019-05-21T19:50:42.028Z,96509.00
2019-05-21T19:53:10.765Z,96513.59
2019-05-21T19:58:28.594Z,96517.70
2019-05-21T20:01:17.039Z,96523.11
2019-05-21T20:03:45.746Z,96526.48
2019-05-21T20:06:54.185Z,96529.84
2019-05-21T20:11:58.434Z,96538.75
2019-05-21T20:20:29.357Z,96535.23
2019-05-21T20:23:37.779Z,96537.77
2019-05-21T20:29:40.997Z,96540.84
2019-05-21T20:34:59.018Z,96539.06
2019-05-21T20:40:56.693Z,96547.58
2019-05-21T20:51:49.077Z,96558.13
2019-05-21T20:59:53.622Z,96557.66
2019-05-21T21:03:02.354Z,96567.72
2019-05-21T21:11:02.519Z,96561.52
2019-05-21T21:16:20.323Z,96564.06
2019-05-21T21:22:02.379Z,96571.53
2019-05-21T21:24:50.465Z,96568.42
2019-05-21T21:29:54.357Z,96571.48
2019-05-21T21:32:23.091Z,96571.25
2019-05-21T21:34:51.775Z,96574.86
2019-05-21T21:37:20.450Z,96580.80
2019-05-21T21:42:44.275Z,96584.08
2019-05-21T21:53:51.612Z,96588.78
2019-05-21T21:56:20.289Z,96594.97
2019-05-21T21:58:48.945Z,96595.75
2019-05-21T22:01:37.073Z,96598.04
2019-05-21T22:04:45.741Z,96599.86
2019-05-21T22:16:14.461Z,96605.05
2019-05-21T22:27:47.304Z,96605.30
2019-05-21T22:33:26.825Z,96606.80
2019-05-21T22:35:55.466Z,96606.34
2019-05-21T22:39:03.927Z,96603.77
2019-05-21T22:41:32.489Z,96604.77
2019-05-21T22:44:22.230Z,96611.45
2019-05-21T22:46:51.991Z,96616.06
2019-05-21T22:50:00.613Z,96609.70
2019-05-21T22:52:29.343Z,96611.48
2019-05-21T22:54:58.726Z,96614.56
2019-05-21T22:57:27.743Z,96610.98
2019-05-21T22:59:57.231Z,96608.13
2019-05-21T23:03:06.038Z,96607.91
2019-05-21T23:05:35.112Z,96608.13
2019-05-21T23:08:04.518Z,96609.42
2019-05-21T23:13:29.070Z,96610.45
2019-05-21T23:16:37.662Z,96616.89
2019-05-21T23:22:36.522Z,96617.39
2019-05-21T23:25:45.176Z,96620.47
2019-05-21T23:28:53.773Z,96617.17
2019-05-21T23:37:14.864Z,96617.92
2019-05-21T23:45:47.640Z,96629.77
2019-05-21T23:50:52.292Z,96625.83
2019-05-21T23:53:41.104Z,96628.98
2019-05-21T23:56:10.195Z,96624.86
2019-05-21T23:58:39.551Z,96621.53
